sensor_id;sensor_type;location;lat;lon;timestamp;temperature;humidity
2054;DHT22;1032;52.542;13.440;2022-09-09T00:01:07;17.00;99.90
2054;DHT22;1032;52.542;13.440;2022-09-09T00:03:40;16.80;99.90
2054;DHT22;1032;52.542;13.440;2022-09-09T00:06:16;16.90;99.90
2054;DHT22;1032;52.542;13.440;2022-09-09T00:08:53;17.10;99.90
2054;DHT22;1032;52.542;13.440;2022-09-09T00:11:28;16.50;99.90
2054;DHT22;1032;52.542;13.440;2022-09-09T00:14:00;16.90;99.90
2054;DHT22;1032;52.542;13.440;2022-09-09T00:16:32;16.30;99.90
2054;DHT22;1032;52.542;13.440;2022-09-09T00:19:05;17.00;99.90
2054;DHT22;1032;52.542;13.440;2022-09-09T00:21:36;16.90;99.90
2054;DHT22;1032;52.542;13.440;2022-09-09T00:24:10;16.80;99.90
2054;DHT22;1032;52.542;13.440;2022-09-09T00:26:43;17.00;99.90
2054;DHT22;1032;52.542;13.440;2022-09-09T00:29:18;16.80;99.90
2054;DHT22;1032;52.542;13.440;2022-09-09T00:31:47;16.80;99.90
2054;DHT22;1032;52.542;13.440;2022-09-09T00:34:18;16.70;99.90
2054;DHT22;1032;52.542;13.440;2022-09-09T00:36:49;16.70;99.90
2054;DHT22;1032;52.542;13.440;2022-09-09T00:39:23;16.60;99.90
2054;DHT22;1032;52.542;13.440;2022-09-09T00:41:59;16.70;99.90
2054;DHT22;1032;52.542;13.440;2022-09-09T00:44:36;16.60;99.90
2054;DHT22;1032;52.542;13.440;2022-09-09T00:47:16;16.60;99.90
2054;DHT22;1032;52.542;13.440;2022-09-09T00:49:57;16.70;99.90
2054;DHT22;1032;52.542;13.440;2022-09-09T00:52:34;16.70;99.90
2054;DHT22;1032;52.542;13.440;2022-09-09T00:55:07;16.40;99.90
2054;DHT22;1032;52.542;13.440;2022-09-09T00:57:39;16.70;99.90
2054;DHT22;1032;52.542;13.440;2022-09-09T01:00:18;16.60;99.90
2054;DHT22;1032;52.542;13.440;2022-09-09T01:03:02;16.70;99.90
2054;DHT22;1032;52.542;13.440;2022-09-09T01:05:35;16.60;99.90
2054;DHT22;1032;52.542;13.440;2022-09-09T01:08:11;16.40;99.90
2054;DHT22;1032;52.542;13.440;2022-09-09T01:10:48;16.80;99.90
2054;DHT22;1032;52.542;13.440;2022-09-09T01:13:22;16.80;99.90
2054;DHT22;1032;52.542;13.440;2022-09-09T01:15:50;16.80;99.90
2054;DHT22;1032;52.542;13.440;2022-09-09T01:18:21;16.50;99.90
2054;DHT22;1032;52.542;13.440;2022-09-09T01:20:55;16.80;99.90
2054;DHT22;1032;52.542;13.440;2022-09-09T01:23:36;16.50;99.90
2054;DHT22;1032;52.542;13.440;2022-09-09T01:26:23;16.60;99.90
2054;DHT22;1032;52.542;13.440;2022-09-09T01:28:52;16.50;99.90
2054;DHT22;1032;52.542;13.440;2022-09-09T01:31:30;16.40;99.90
2054;DHT22;1032;52.542;13.440;2022-09-09T01:33:59;16.50;99.90
2054;DHT22;1032;52.542;13.440;2022-09-09T01:36:31;16.60;99.90
2054;DHT22;1032;52.542;13.440;2022-09-09T01:39:01;16.40;99.90
2054;DHT22;1032;52.542;13.440;2022-09-09T01:41:30;16.20;99.90
2054;DHT22;1032;52.542;13.440;2022-09-09T01:44:06;16.30;99.90
2054;DHT22;1032;52.542;13.440;2022-09-09T01:46:36;16.10;99.90
2054;DHT22;1032;52.542;13.440;2022-09-09T01:49:06;16.20;99.90
2054;DHT22;1032;52.542;13.440;2022-09-09T01:51:34;16.30;99.90
2054;DHT22;1032;52.542;13.440;2022-09-09T01:54:04;16.30;99.90
2054;DHT22;1032;52.542;13.440;2022-09-09T01:56:42;16.20;99.90
2054;DHT22;1032;52.542;13.440;2022-09-09T01:59:20;16.30;99.90
2054;DHT22;1032;52.542;13.440;2022-09-09T02:02:04;16.30;99.90
2054;DHT22;1032;52.542;13.440;2022-09-09T02:04:37;16.20;99.90
2054;DHT22;1032;52.542;13.440;2022-09-09T02:07:32;16.40;99.90
2054;DHT22;1032;52.542;13.440;2022-09-09T02:10:04;16.40;99.90
2054;DHT22;1032;52.542;13.440;2022-09-09T02:12:39;16.40;99.90
2054;DHT22;1032;52.542;13.440;2022-09-09T02:15:11;16.10;99.90
2054;DHT22;1032;52.542;13.440;2022-09-09T02:17:48;16.20;99.90
2054;DHT22;1032;52.542;13.440;2022-09-09T02:20:18;16.10;99.90
2054;DHT22;1032;52.542;13.440;2022-09-09T02:22:50;16.10;99.90
2054;DHT22;1032;52.542;13.440;2022-09-09T02:25:21;16.20;99.90
2054;DHT22;1032;52.542;13.440;2022-09-09T02:27:51;16.10;99.90
2054;DHT22;1032;52.542;13.440;2022-09-09T02:30:19;16.10;99.90
2054;DHT22;1032;52.542;13.440;2022-09-09T02:32:53;16.10;99.90
2054;DHT22;1032;52.542;13.440;2022-09-09T02:35:24;16.10;99.90
2054;DHT22;1032;52.542;13.440;2022-09-09T02:37:55;16.20;99.90
2054;DHT22;1032;52.542;13.440;2022-09-09T02:40:24;16.30;99.90
2054;DHT22;1032;52.542;13.440;2022-09-09T02:42:59;16.10;99.90
2054;DHT22;1032;52.542;13.440;2022-09-09T02:45:34;16.00;99.90
2054;DHT22;1032;52.542;13.440;2022-09-09T02:48:08;16.20;99.90
2054;DHT22;1032;52.542;13.440;2022-09-09T02:50:40;16.00;99.90
2054;DHT22;1032;52.542;13.440;2022-09-09T02:53:16;15.90;99.90
2054;DHT22;1032;52.542;13.440;2022-09-09T02:55:47;15.90;99.90
2054;DHT22;1032;52.542;13.440;2022-09-09T02:58:18;15.50;99.90
2054;DHT22;1032;52.542;13.440;2022-09-09T03:00:55;15.60;99.90
2054;DHT22;1032;52.542;13.440;2022-09-09T03:03:23;16.00;99.90
2054;DHT22;1032;52.542;13.440;2022-09-09T03:05:51;16.00;99.90
2054;DHT22;1032;52.542;13.440;2022-09-09T03:08:18;15.60;99.90
2054;DHT22;1032;52.542;13.440;2022-09-09T03:10:45;15.70;99.90
2054;DHT22;1032;52.542;13.440;2022-09-09T03:13:14;15.80;99.90
2054;DHT22;1032;52.542;13.440;2022-09-09T03:15:42;15.90;99.90
2054;DHT22;1032;52.542;13.440;2022-09-09T03:18:14;15.90;99.90
2054;DHT22;1032;52.542;13.440;2022-09-09T03:20:42;16.00;99.90
2054;DHT22;1032;52.542;13.440;2022-09-09T03:23:10;16.00;99.90
2054;DHT22;1032;52.542;13.440;2022-09-09T03:25:39;15.90;99.90
2054;DHT22;1032;52.542;13.440;2022-09-09T03:28:06;15.90;99.90
2054;DHT22;1032;52.542;13.440;2022-09-09T03:30:32;16.10;99.90
2054;DHT22;1032;52.542;13.440;2022-09-09T03:33:01;15.90;99.90
2054;DHT22;1032;52.542;13.440;2022-09-09T03:35:31;15.60;99.90
2054;DHT22;1032;52.542;13.440;2022-09-09T03:37:58;15.90;99.90
2054;DHT22;1032;52.542;13.440;2022-09-09T03:40:26;15.40;99.90
2054;DHT22;1032;52.542;13.440;2022-09-09T03:42:53;15.80;99.90
2054;DHT22;1032;52.542;13.440;2022-09-09T03:45:20;15.70;99.90
2054;DHT22;1032;52.542;13.440;2022-09-09T03:47:46;15.90;99.90
2054;DHT22;1032;52.542;13.440;2022-09-09T03:50:15;15.80;99.90
2054;DHT22;1032;52.542;13.440;2022-09-09T03:52:44;15.80;99.90
2054;DHT22;1032;52.542;13.440;2022-09-09T03:55:17;15.70;99.90
2054;DHT22;1032;52.542;13.440;2022-09-09T03:57:44;15.90;99.90
2054;DHT22;1032;52.542;13.440;2022-09-09T04:00:12;16.30;99.90
2054;DHT22;1032;52.542;13.440;2022-09-09T04:02:42;15.70;99.90
2054;DHT22;1032;52.542;13.440;2022-09-09T04:05:12;15.70;99.90
2054;DHT22;1032;52.542;13.440;2022-09-09T04:07:43;15.70;99.90
2054;DHT22;1032;52.542;13.440;2022-09-09T04:10:09;15.80;99.90
2054;DHT22;1032;52.542;13.440;2022-09-09T04:12:38;15.50;99.90
2054;DHT22;1032;52.542;13.440;2022-09-09T04:15:05;15.80;99.90
2054;DHT22;1032;52.542;13.440;2022-09-09T04:17:34;15.70;99.90
2054;DHT22;1032;52.542;13.440;2022-09-09T04:20:02;15.70;99.90
2054;DHT22;1032;52.542;13.440;2022-09-09T04:22:29;15.90;99.90
2054;DHT22;1032;52.542;13.440;2022-09-09T04:24:56;15.60;99.90
2054;DHT22;1032;52.542;13.440;2022-09-09T04:27:23;15.90;99.90
2054;DHT22;1032;52.542;13.440;2022-09-09T04:29:50;15.70;99.90
2054;DHT22;1032;52.542;13.440;2022-09-09T04:32:16;16.00;99.90
2054;DHT22;1032;52.542;13.440;2022-09-09T04:34:44;15.20;99.90
2054;DHT22;1032;52.542;13.440;2022-09-09T04:37:13;15.40;99.90
2054;DHT22;1032;52.542;13.440;2022-09-09T04:39:40;15.70;99.90
2054;DHT22;1032;52.542;13.440;2022-09-09T04:42:08;15.70;99.90
2054;DHT22;1032;52.542;13.440;2022-09-09T04:44:35;15.40;99.90
2054;DHT22;1032;52.542;13.440;2022-09-09T04:47:02;15.70;99.90
2054;DHT22;1032;52.542;13.440;2022-09-09T04:49:29;15.60;99.90
2054;DHT22;1032;52.542;13.440;2022-09-09T04:51:57;15.70;99.90
2054;DHT22;1032;52.542;13.440;2022-09-09T04:54:23;15.60;99.90
2054;DHT22;1032;52.542;13.440;2022-09-09T04:56:50;15.80;99.90
2054;DHT22;1032;52.542;13.440;2022-09-09T04:59:19;15.50;99.90
2054;DHT22;1032;52.542;13.440;2022-09-09T05:01:51;15.70;99.90
2054;DHT22;1032;52.542;13.440;2022-09-09T05:04:20;15.80;99.90
2054;DHT22;1032;52.542;13.440;2022-09-09T05:06:46;16.10;99.90
2054;DHT22;1032;52.542;13.440;2022-09-09T05:09:14;15.60;99.90
2054;DHT22;1032;52.542;13.440;2022-09-09T05:11:41;15.40;99.90
2054;DHT22;1032;52.542;13.440;2022-09-09T05:14:20;15.90;99.90
2054;DHT22;1032;52.542;13.440;2022-09-09T05:16:46;15.60;99.90
2054;DHT22;1032;52.542;13.440;2022-09-09T05:19:15;15.60;99.90
2054;DHT22;1032;52.542;13.440;2022-09-09T05:21:46;15.90;99.90
2054;DHT22;1032;52.542;13.440;2022-09-09T05:24:16;15.90;99.90
2054;DHT22;1032;52.542;13.440;2022-09-09T05:26:45;16.00;99.90
2054;DHT22;1032;52.542;13.440;2022-09-09T05:29:12;16.00;99.90
2054;DHT22;1032;52.542;13.440;2022-09-09T05:31:39;16.20;99.90
2054;DHT22;1032;52.542;13.440;2022-09-09T05:34:10;16.00;99.90
2054;DHT22;1032;52.542;13.440;2022-09-09T05:36:37;16.20;99.90
2054;DHT22;1032;52.542;13.440;2022-09-09T05:39:05;16.40;99.90
2054;DHT22;1032;52.542;13.440;2022-09-09T05:41:33;16.60;99.90
2054;DHT22;1032;52.542;13.440;2022-09-09T05:44:02;16.50;99.90
2054;DHT22;1032;52.542;13.440;2022-09-09T05:46:32;16.70;99.90
2054;DHT22;1032;52.542;13.440;2022-09-09T05:49:02;16.80;99.90
2054;DHT22;1032;52.542;13.440;2022-09-09T05:51:32;16.80;99.90
2054;DHT22;1032;52.542;13.440;2022-09-09T05:54:03;17.00;99.90
2054;DHT22;1032;52.542;13.440;2022-09-09T05:56:33;17.20;99.90
2054;DHT22;1032;52.542;13.440;2022-09-09T05:59:00;17.20;99.90
2054;DHT22;1032;52.542;13.440;2022-09-09T06:01:28;17.20;99.90
2054;DHT22;1032;52.542;13.440;2022-09-09T06:03:56;17.20;99.90
2054;DHT22;1032;52.542;13.440;2022-09-09T06:06:26;17.30;99.90
2054;DHT22;1032;52.542;13.440;2022-09-09T06:08:57;17.40;99.90
2054;DHT22;1032;52.542;13.440;2022-09-09T06:11:28;17.50;99.90
2054;DHT22;1032;52.542;13.440;2022-09-09T06:13:58;17.50;99.90
2054;DHT22;1032;52.542;13.440;2022-09-09T06:16:27;17.60;99.90
2054;DHT22;1032;52.542;13.440;2022-09-09T06:18:55;17.60;99.90
2054;DHT22;1032;52.542;13.440;2022-09-09T06:21:26;17.70;99.90
2054;DHT22;1032;52.542;13.440;2022-09-09T06:23:54;17.70;99.90
2054;DHT22;1032;52.542;13.440;2022-09-09T06:26:22;18.00;99.90
2054;DHT22;1032;52.542;13.440;2022-09-09T06:28:51;17.80;99.90
2054;DHT22;1032;52.542;13.440;2022-09-09T06:31:21;17.90;99.90
2054;DHT22;1032;52.542;13.440;2022-09-09T06:33:50;18.00;99.90
2054;DHT22;1032;52.542;13.440;2022-09-09T06:36:19;18.00;99.90
2054;DHT22;1032;52.542;13.440;2022-09-09T06:38:47;18.00;99.90
2054;DHT22;1032;52.542;13.440;2022-09-09T06:41:16;18.10;99.90
2054;DHT22;1032;52.542;13.440;2022-09-09T06:43:44;17.50;99.90
2054;DHT22;1032;52.542;13.440;2022-09-09T06:46:13;18.00;99.90
2054;DHT22;1032;52.542;13.440;2022-09-09T06:48:41;18.10;99.90
2054;DHT22;1032;52.542;13.440;2022-09-09T06:51:12;18.10;99.90
2054;DHT22;1032;52.542;13.440;2022-09-09T06:53:40;18.00;99.90
2054;DHT22;1032;52.542;13.440;2022-09-09T06:56:21;18.00;99.90
2054;DHT22;1032;52.542;13.440;2022-09-09T06:58:50;17.90;99.90
2054;DHT22;1032;52.542;13.440;2022-09-09T07:01:24;17.90;99.90
2054;DHT22;1032;52.542;13.440;2022-09-09T07:03:56;18.00;99.90
2054;DHT22;1032;52.542;13.440;2022-09-09T07:06:25;18.00;99.90
2054;DHT22;1032;52.542;13.440;2022-09-09T07:08:54;18.60;99.90
2054;DHT22;1032;52.542;13.440;2022-09-09T07:11:26;18.20;99.90
2054;DHT22;1032;52.542;13.440;2022-09-09T07:13:53;18.30;99.90
2054;DHT22;1032;52.542;13.440;2022-09-09T07:16:21;18.40;99.90
2054;DHT22;1032;52.542;13.440;2022-09-09T07:18:50;18.40;99.90
2054;DHT22;1032;52.542;13.440;2022-09-09T07:21:17;18.10;99.90
2054;DHT22;1032;52.542;13.440;2022-09-09T07:23:44;18.80;99.90
2054;DHT22;1032;52.542;13.440;2022-09-09T07:26:13;18.30;99.90
2054;DHT22;1032;52.542;13.440;2022-09-09T07:28:42;18.50;99.90
2054;DHT22;1032;52.542;13.440;2022-09-09T07:31:13;18.30;99.90
2054;DHT22;1032;52.542;13.440;2022-09-09T07:33:40;18.50;99.90
2054;DHT22;1032;52.542;13.440;2022-09-09T07:36:09;18.50;99.90
2054;DHT22;1032;52.542;13.440;2022-09-09T07:38:39;18.70;99.90
2054;DHT22;1032;52.542;13.440;2022-09-09T07:41:07;18.70;99.90
2054;DHT22;1032;52.542;13.440;2022-09-09T07:43:37;18.70;99.90
2054;DHT22;1032;52.542;13.440;2022-09-09T07:46:09;18.70;99.90
2054;DHT22;1032;52.542;13.440;2022-09-09T07:48:38;18.80;99.90
2054;DHT22;1032;52.542;13.440;2022-09-09T07:51:07;19.00;99.90
2054;DHT22;1032;52.542;13.440;2022-09-09T07:53:34;18.90;99.90
2054;DHT22;1032;52.542;13.440;2022-09-09T07:56:06;19.00;99.90
2054;DHT22;1032;52.542;13.440;2022-09-09T07:58:35;19.50;99.90
2054;DHT22;1032;52.542;13.440;2022-09-09T08:01:08;19.30;99.90
2054;DHT22;1032;52.542;13.440;2022-09-09T08:03:35;19.40;99.90
2054;DHT22;1032;52.542;13.440;2022-09-09T08:06:03;19.70;99.90
2054;DHT22;1032;52.542;13.440;2022-09-09T08:08:30;19.60;99.90
2054;DHT22;1032;52.542;13.440;2022-09-09T08:11:04;19.50;99.90
2054;DHT22;1032;52.542;13.440;2022-09-09T08:13:33;19.80;99.90
2054;DHT22;1032;52.542;13.440;2022-09-09T08:16:06;19.80;99.90
2054;DHT22;1032;52.542;13.440;2022-09-09T08:18:34;20.00;99.90
2054;DHT22;1032;52.542;13.440;2022-09-09T08:21:09;19.90;99.90
2054;DHT22;1032;52.542;13.440;2022-09-09T08:23:38;20.10;99.90
2054;DHT22;1032;52.542;13.440;2022-09-09T08:26:10;19.90;99.90
2054;DHT22;1032;52.542;13.440;2022-09-09T08:28:37;19.90;99.90
2054;DHT22;1032;52.542;13.440;2022-09-09T08:31:11;20.30;99.90
2054;DHT22;1032;52.542;13.440;2022-09-09T08:33:39;19.80;99.90
2054;DHT22;1032;52.542;13.440;2022-09-09T08:36:11;19.80;99.90
2054;DHT22;1032;52.542;13.440;2022-09-09T08:38:38;19.90;99.90
2054;DHT22;1032;52.542;13.440;2022-09-09T08:41:23;19.80;99.90
2054;DHT22;1032;52.542;13.440;2022-09-09T08:44:02;19.70;99.90
2054;DHT22;1032;52.542;13.440;2022-09-09T08:46:38;19.60;99.90
2054;DHT22;1032;52.542;13.440;2022-09-09T08:49:18;19.90;99.90
2054;DHT22;1032;52.542;13.440;2022-09-09T08:51:49;19.90;99.90
2054;DHT22;1032;52.542;13.440;2022-09-09T08:54:17;19.90;99.90
2054;DHT22;1032;52.542;13.440;2022-09-09T08:56:44;19.90;99.90
2054;DHT22;1032;52.542;13.440;2022-09-09T08:59:16;19.80;99.90
2054;DHT22;1032;52.542;13.440;2022-09-09T09:02:00;19.90;99.90
2054;DHT22;1032;52.542;13.440;2022-09-09T09:04:59;19.90;99.90
2054;DHT22;1032;52.542;13.440;2022-09-09T09:07:39;20.00;99.90
2054;DHT22;1032;52.542;13.440;2022-09-09T09:10:15;20.00;99.90
2054;DHT22;1032;52.542;13.440;2022-09-09T09:12:44;20.00;99.90
2054;DHT22;1032;52.542;13.440;2022-09-09T09:15:18;20.20;99.90
2054;DHT22;1032;52.542;13.440;2022-09-09T09:17:49;20.40;99.90
2054;DHT22;1032;52.542;13.440;2022-09-09T09:20:22;20.50;99.90
2054;DHT22;1032;52.542;13.440;2022-09-09T09:22:54;20.60;99.90
2054;DHT22;1032;52.542;13.440;2022-09-09T09:25:23;20.80;99.90
2054;DHT22;1032;52.542;13.440;2022-09-09T09:27:57;21.00;99.90
2054;DHT22;1032;52.542;13.440;2022-09-09T09:30:31;21.30;99.90
2054;DHT22;1032;52.542;13.440;2022-09-09T09:33:12;21.60;99.90
2054;DHT22;1032;52.542;13.440;2022-09-09T09:35:41;21.50;99.90
2054;DHT22;1032;52.542;13.440;2022-09-09T09:38:16;21.60;99.90
2054;DHT22;1032;52.542;13.440;2022-09-09T09:40:52;21.80;99.90
2054;DHT22;1032;52.542;13.440;2022-09-09T09:43:24;21.90;99.90
2054;DHT22;1032;52.542;13.440;2022-09-09T09:45:53;21.80;99.90
2054;DHT22;1032;52.542;13.440;2022-09-09T09:48:21;22.00;99.90
2054;DHT22;1032;52.542;13.440;2022-09-09T09:50:51;21.80;99.90
2054;DHT22;1032;52.542;13.440;2022-09-09T09:53:24;21.90;99.90
2054;DHT22;1032;52.542;13.440;2022-09-09T09:55:55;21.90;99.90
2054;DHT22;1032;52.542;13.440;2022-09-09T09:58:23;21.50;99.90
2054;DHT22;1032;52.542;13.440;2022-09-09T10:00:52;21.70;99.90
2054;DHT22;1032;52.542;13.440;2022-09-09T10:03:26;21.70;99.90
2054;DHT22;1032;52.542;13.440;2022-09-09T10:05:55;21.50;99.90
2054;DHT22;1032;52.542;13.440;2022-09-09T10:08:22;21.40;99.90
2054;DHT22;1032;52.542;13.440;2022-09-09T10:11:01;21.70;99.90
2054;DHT22;1032;52.542;13.440;2022-09-09T10:13:32;21.80;99.90
2054;DHT22;1032;52.542;13.440;2022-09-09T10:16:13;21.30;99.90
2054;DHT22;1032;52.542;13.440;2022-09-09T10:18:55;21.50;99.90
2054;DHT22;1032;52.542;13.440;2022-09-09T10:21:38;21.50;99.90
2054;DHT22;1032;52.542;13.440;2022-09-09T10:24:29;21.70;99.90
2054;DHT22;1032;52.542;13.440;2022-09-09T10:27:08;21.40;99.90
2054;DHT22;1032;52.542;13.440;2022-09-09T10:29:48;21.30;99.90
2054;DHT22;1032;52.542;13.440;2022-09-09T10:32:44;21.50;99.90
2054;DHT22;1032;52.542;13.440;2022-09-09T10:35:25;21.50;99.90
2054;DHT22;1032;52.542;13.440;2022-09-09T10:38:16;21.60;99.90
2054;DHT22;1032;52.542;13.440;2022-09-09T10:40:50;21.70;99.90
2054;DHT22;1032;52.542;13.440;2022-09-09T10:43:39;21.60;99.90
2054;DHT22;1032;52.542;13.440;2022-09-09T10:46:15;21.70;99.90
2054;DHT22;1032;52.542;13.440;2022-09-09T10:48:59;21.80;99.90
2054;DHT22;1032;52.542;13.440;2022-09-09T10:51:37;21.80;99.90
2054;DHT22;1032;52.542;13.440;2022-09-09T10:54:21;22.00;99.90
2054;DHT22;1032;52.542;13.440;2022-09-09T10:56:54;21.80;99.90
2054;DHT22;1032;52.542;13.440;2022-09-09T10:59:25;21.80;99.90
2054;DHT22;1032;52.542;13.440;2022-09-09T11:01:57;22.10;99.90
2054;DHT22;1032;52.542;13.440;2022-09-09T11:04:28;21.60;99.90
2054;DHT22;1032;52.542;13.440;2022-09-09T11:06:58;21.90;99.90
2054;DHT22;1032;52.542;13.440;2022-09-09T11:09:35;22.10;99.90
2054;DHT22;1032;52.542;13.440;2022-09-09T11:12:03;21.90;99.90
2054;DHT22;1032;52.542;13.440;2022-09-09T11:14:35;21.70;99.90
2054;DHT22;1032;52.542;13.440;2022-09-09T11:17:10;22.00;99.90
2054;DHT22;1032;52.542;13.440;2022-09-09T11:23:30;21.90;99.90
2054;DHT22;1032;52.542;13.440;2022-09-09T11:26:01;22.10;99.90
2054;DHT22;1032;52.542;13.440;2022-09-09T11:28:41;22.20;99.90
2054;DHT22;1032;52.542;13.440;2022-09-09T11:31:27;22.20;99.90
2054;DHT22;1032;52.542;13.440;2022-09-09T11:34:09;21.90;99.90
2054;DHT22;1032;52.542;13.440;2022-09-09T11:36:52;22.20;99.90
2054;DHT22;1032;52.542;13.440;2022-09-09T11:39:56;22.50;99.90
2054;DHT22;1032;52.542;13.440;2022-09-09T11:42:27;22.50;99.90
2054;DHT22;1032;52.542;13.440;2022-09-09T11:44:53;23.00;99.90
2054;DHT22;1032;52.542;13.440;2022-09-09T11:47:24;22.60;99.90
2054;DHT22;1032;52.542;13.440;2022-09-09T11:49:55;22.60;99.90
2054;DHT22;1032;52.542;13.440;2022-09-09T11:52:36;22.60;99.90
2054;DHT22;1032;52.542;13.440;2022-09-09T11:55:10;22.80;99.90
2054;DHT22;1032;52.542;13.440;2022-09-09T11:57:38;22.80;99.90
2054;DHT22;1032;52.542;13.440;2022-09-09T12:00:06;22.80;99.90
2054;DHT22;1032;52.542;13.440;2022-09-09T12:02:48;22.80;99.90
2054;DHT22;1032;52.542;13.440;2022-09-09T12:05:15;22.90;99.90
2054;DHT22;1032;52.542;13.440;2022-09-09T12:07:50;22.90;99.50
2054;DHT22;1032;52.542;13.440;2022-09-09T12:10:25;22.80;98.90
2054;DHT22;1032;52.542;13.440;2022-09-09T12:12:52;22.90;99.10
2054;DHT22;1032;52.542;13.440;2022-09-09T12:15:25;22.90;99.10
2054;DHT22;1032;52.542;13.440;2022-09-09T12:17:56;23.00;98.80
2054;DHT22;1032;52.542;13.440;2022-09-09T12:20:34;23.00;98.70
2054;DHT22;1032;52.542;13.440;2022-09-09T12:23:15;23.10;98.10
2054;DHT22;1032;52.542;13.440;2022-09-09T12:25:57;23.20;98.00
2054;DHT22;1032;52.542;13.440;2022-09-09T12:28:37;23.30;97.70
2054;DHT22;1032;52.542;13.440;2022-09-09T12:31:10;23.30;97.70
2054;DHT22;1032;52.542;13.440;2022-09-09T12:33:44;23.30;97.40
2054;DHT22;1032;52.542;13.440;2022-09-09T12:36:15;23.10;97.30
2054;DHT22;1032;52.542;13.440;2022-09-09T12:38:43;23.30;97.40
2054;DHT22;1032;52.542;13.440;2022-09-09T12:41:20;22.70;97.00
2054;DHT22;1032;52.542;13.440;2022-09-09T12:43:47;23.10;97.00
2054;DHT22;1032;52.542;13.440;2022-09-09T12:46:23;23.00;97.00
2054;DHT22;1032;52.542;13.440;2022-09-09T12:48:52;23.10;97.20
2054;DHT22;1032;52.542;13.440;2022-09-09T12:51:24;23.00;96.90
2054;DHT22;1032;52.542;13.440;2022-09-09T12:53:52;23.10;96.60
2054;DHT22;1032;52.542;13.440;2022-09-09T12:56:22;23.00;96.50
2054;DHT22;1032;52.542;13.440;2022-09-09T12:58:52;23.00;96.40
2054;DHT22;1032;52.542;13.440;2022-09-09T13:01:22;22.90;96.60
2054;DHT22;1032;52.542;13.440;2022-09-09T13:03:49;23.10;96.60
2054;DHT22;1032;52.542;13.440;2022-09-09T13:06:20;23.10;96.60
2054;DHT22;1032;52.542;13.440;2022-09-09T13:08:48;22.70;95.90
2054;DHT22;1032;52.542;13.440;2022-09-09T13:11:17;23.00;95.70
2054;DHT22;1032;52.542;13.440;2022-09-09T13:13:52;23.30;95.70
2054;DHT22;1032;52.542;13.440;2022-09-09T13:16:21;23.30;95.70
2054;DHT22;1032;52.542;13.440;2022-09-09T13:18:48;22.90;95.60
2054;DHT22;1032;52.542;13.440;2022-09-09T13:21:15;23.40;95.70
2054;DHT22;1032;52.542;13.440;2022-09-09T13:23:42;23.40;95.40
2054;DHT22;1032;52.542;13.440;2022-09-09T13:26:21;23.60;95.50
2054;DHT22;1032;52.542;13.440;2022-09-09T13:28:50;23.60;95.30
2054;DHT22;1032;52.542;13.440;2022-09-09T13:31:23;23.60;95.10
2054;DHT22;1032;52.542;13.440;2022-09-09T13:33:53;23.70;95.30
2054;DHT22;1032;52.542;13.440;2022-09-09T13:36:29;23.60;94.80
2054;DHT22;1032;52.542;13.440;2022-09-09T13:38:57;23.60;94.60
2054;DHT22;1032;52.542;13.440;2022-09-09T13:41:29;23.70;94.70
2054;DHT22;1032;52.542;13.440;2022-09-09T13:43:59;23.70;94.50
2054;DHT22;1032;52.542;13.440;2022-09-09T13:46:32;23.70;94.40
2054;DHT22;1032;52.542;13.440;2022-09-09T13:49:02;23.80;94.30
2054;DHT22;1032;52.542;13.440;2022-09-09T13:51:37;23.50;94.10
2054;DHT22;1032;52.542;13.440;2022-09-09T13:54:04;23.90;94.40
2054;DHT22;1032;52.542;13.440;2022-09-09T13:56:32;24.00;94.60
2054;DHT22;1032;52.542;13.440;2022-09-09T13:59:00;24.10;94.50
2054;DHT22;1032;52.542;13.440;2022-09-09T14:01:26;24.20;94.00
2054;DHT22;1032;52.542;13.440;2022-09-09T14:03:54;24.20;93.40
2054;DHT22;1032;52.542;13.440;2022-09-09T14:06:21;24.30;92.90
2054;DHT22;1032;52.542;13.440;2022-09-09T14:08:49;24.30;92.80
2054;DHT22;1032;52.542;13.440;2022-09-09T14:11:16;24.00;92.80
2054;DHT22;1032;52.542;13.440;2022-09-09T14:13:43;24.50;92.70
2054;DHT22;1032;52.542;13.440;2022-09-09T14:16:11;24.50;92.60
2054;DHT22;1032;52.542;13.440;2022-09-09T14:18:39;24.20;92.00
2054;DHT22;1032;52.542;13.440;2022-09-09T14:21:06;24.10;92.00
2054;DHT22;1032;52.542;13.440;2022-09-09T14:23:34;24.10;92.10
2054;DHT22;1032;52.542;13.440;2022-09-09T14:26:01;24.10;92.10
2054;DHT22;1032;52.542;13.440;2022-09-09T14:28:27;24.20;92.50
2054;DHT22;1032;52.542;13.440;2022-09-09T14:30:54;24.20;92.50
2054;DHT22;1032;52.542;13.440;2022-09-09T14:33:23;24.30;92.60
2054;DHT22;1032;52.542;13.440;2022-09-09T14:35:55;24.30;92.40
2054;DHT22;1032;52.542;13.440;2022-09-09T14:38:22;24.20;92.30
2054;DHT22;1032;52.542;13.440;2022-09-09T14:40:49;24.20;92.50
2054;DHT22;1032;52.542;13.440;2022-09-09T14:43:15;24.20;92.30
2054;DHT22;1032;52.542;13.440;2022-09-09T14:45:42;24.20;92.20
2054;DHT22;1032;52.542;13.440;2022-09-09T14:48:09;24.20;92.30
2054;DHT22;1032;52.542;13.440;2022-09-09T14:50:37;24.20;92.30
2054;DHT22;1032;52.542;13.440;2022-09-09T14:53:05;24.20;92.40
2054;DHT22;1032;52.542;13.440;2022-09-09T14:55:32;24.10;92.20
2054;DHT22;1032;52.542;13.440;2022-09-09T14:57:59;24.10;92.20
2054;DHT22;1032;52.542;13.440;2022-09-09T15:00:25;24.10;92.30
2054;DHT22;1032;52.542;13.440;2022-09-09T15:02:52;24.30;92.60
2054;DHT22;1032;52.542;13.440;2022-09-09T15:05:19;24.00;92.60
2054;DHT22;1032;52.542;13.440;2022-09-09T15:07:47;23.80;92.60
2054;DHT22;1032;52.542;13.440;2022-09-09T15:10:14;23.70;92.50
2054;DHT22;1032;52.542;13.440;2022-09-09T15:12:43;23.80;92.60
2054;DHT22;1032;52.542;13.440;2022-09-09T15:15:10;23.70;92.70
2054;DHT22;1032;52.542;13.440;2022-09-09T15:17:38;23.70;92.40
2054;DHT22;1032;52.542;13.440;2022-09-09T15:20:05;23.90;92.40
2054;DHT22;1032;52.542;13.440;2022-09-09T15:22:32;23.70;92.00
2054;DHT22;1032;52.542;13.440;2022-09-09T15:25:00;23.70;91.90
2054;DHT22;1032;52.542;13.440;2022-09-09T15:27:27;23.70;92.20
2054;DHT22;1032;52.542;13.440;2022-09-09T15:29:54;23.80;91.90
2054;DHT22;1032;52.542;13.440;2022-09-09T15:32:22;23.90;91.90
2054;DHT22;1032;52.542;13.440;2022-09-09T15:34:48;23.90;91.70
2054;DHT22;1032;52.542;13.440;2022-09-09T15:37:18;23.90;90.80
2054;DHT22;1032;52.542;13.440;2022-09-09T15:39:45;23.90;90.60
2054;DHT22;1032;52.542;13.440;2022-09-09T15:42:12;23.90;90.60
2054;DHT22;1032;52.542;13.440;2022-09-09T15:44:39;23.90;90.80
2054;DHT22;1032;52.542;13.440;2022-09-09T15:47:09;23.90;90.80
2054;DHT22;1032;52.542;13.440;2022-09-09T15:49:37;23.80;90.80
2054;DHT22;1032;52.542;13.440;2022-09-09T15:52:04;23.70;91.00
2054;DHT22;1032;52.542;13.440;2022-09-09T15:54:32;23.70;91.00
2054;DHT22;1032;52.542;13.440;2022-09-09T15:57:01;23.60;90.80
2054;DHT22;1032;52.542;13.440;2022-09-09T15:59:30;23.50;90.40
2054;DHT22;1032;52.542;13.440;2022-09-09T16:01:59;23.40;90.30
2054;DHT22;1032;52.542;13.440;2022-09-09T16:04:27;23.30;90.20
2054;DHT22;1032;52.542;13.440;2022-09-09T16:06:56;23.20;90.20
2054;DHT22;1032;52.542;13.440;2022-09-09T16:09:24;23.10;90.30
2054;DHT22;1032;52.542;13.440;2022-09-09T16:11:51;23.10;90.60
2054;DHT22;1032;52.542;13.440;2022-09-09T16:14:18;23.10;90.90